createdAt,value
2018-04-27T00:00:59.353Z,980.7
2018-04-27T00:02:00.852Z,980.6
2018-04-27T00:03:02.256Z,980.6
2018-04-27T00:04:03.705Z,980.4
2018-04-27T00:05:05.141Z,980.6
2018-04-27T00:06:06.516Z,980.7
2018-04-27T00:07:07.942Z,980.6
2018-04-27T00:08:09.361Z,980.6
2018-04-27T00:09:10.774Z,980.7
2018-04-27T00:10:12.160Z,980.7
2018-04-27T00:11:13.571Z,980.7
2018-04-27T00:12:14.941Z,980.6
2018-04-27T00:13:16.319Z,980.7
2018-04-27T00:14:17.767Z,980.7
2018-04-27T00:15:19.140Z,980.6
2018-04-27T00:16:20.511Z,980.6
2018-04-27T00:17:21.914Z,980.6
2018-04-27T00:18:23.305Z,980.6
2018-04-27T00:19:24.921Z,980.6
2018-04-27T00:20:26.308Z,980.6
2018-04-27T00:21:27.718Z,980.6
2018-04-27T00:22:29.099Z,980.6
2018-04-27T00:23:30.504Z,980.5
2018-04-27T00:24:31.998Z,980.6
2018-04-27T00:25:33.368Z,980.7
2018-04-27T00:26:34.807Z,980.7
2018-04-27T00:27:36.265Z,980.6
2018-04-27T00:28:37.639Z,980.6
2018-04-27T00:29:39.088Z,980.6
2018-04-27T00:30:40.531Z,980.6
2018-04-27T00:31:41.921Z,980.6
2018-04-27T00:32:43.368Z,980.5
2018-04-27T00:33:44.724Z,980.5
2018-04-27T00:34:46.636Z,980.5
2018-04-27T00:35:48.031Z,980.5
2018-04-27T00:36:49.408Z,980.2
2018-04-27T00:37:50.818Z,980.5
2018-04-27T00:38:52.247Z,980.5
2018-04-27T00:39:53.664Z,980.5
2018-04-27T00:40:55.074Z,980.5
2018-04-27T00:41:56.453Z,980.4
2018-04-27T00:42:57.845Z,980.4
2018-04-27T00:43:59.251Z,980.5
2018-04-27T00:45:00.703Z,980.4
2018-04-27T00:46:02.157Z,980.4
2018-04-27T00:47:03.564Z,980.4
2018-04-27T00:48:04.936Z,980.4
2018-04-27T00:49:06.420Z,980.4
2018-04-27T00:50:08.120Z,980.4
2018-04-27T00:51:09.503Z,980.3
2018-04-27T00:52:10.916Z,980.3
2018-04-27T00:53:12.282Z,980.3
2018-04-27T00:54:13.691Z,980.4
2018-04-27T00:55:15.180Z,980.1
2018-04-27T00:56:16.611Z,980.3
2018-04-27T00:57:18.016Z,980.4
2018-04-27T00:58:19.398Z,980.4
2018-04-27T00:59:20.816Z,980.3
2018-04-27T01:00:22.221Z,980.4
2018-04-27T01:01:23.615Z,980.3
2018-04-27T01:02:25.051Z,980.4
2018-04-27T01:03:26.427Z,980.4
2018-04-27T01:04:27.818Z,980.3
2018-04-27T01:05:29.440Z,980.4
2018-04-27T01:06:30.847Z,980.4
2018-04-27T01:07:32.238Z,980.4
2018-04-27T01:08:33.613Z,980.4
2018-04-27T01:09:35.057Z,980.3
2018-04-27T01:10:36.502Z,980.3
2018-04-27T01:11:37.963Z,980.3
2018-04-27T01:12:39.338Z,980.1
2018-04-27T01:13:40.711Z,980.3
2018-04-27T01:14:42.140Z,980.3
2018-04-27T01:15:43.571Z,980.2
2018-04-27T01:16:44.935Z,980.3
2018-04-27T01:17:46.302Z,980.3
2018-04-27T01:18:47.683Z,980.3
2018-04-27T01:19:49.059Z,980.3
2018-04-27T01:20:50.903Z,980.3
2018-04-27T01:21:52.349Z,980.3
2018-04-27T01:22:53.735Z,980.3
2018-04-27T01:23:55.121Z,980.3
2018-04-27T01:24:56.557Z,980.1
2018-04-27T01:25:57.999Z,980.3
2018-04-27T01:26:59.455Z,980.3
2018-04-27T01:28:00.830Z,980.3
2018-04-27T01:29:02.230Z,980.3
2018-04-27T01:30:03.639Z,980.3
2018-04-27T01:31:05.063Z,980.3
2018-04-27T01:32:06.441Z,980.3
2018-04-27T01:33:07.814Z,980.3
2018-04-27T01:34:09.247Z,980.3
2018-04-27T01:35:10.609Z,980.3
2018-04-27T01:36:12.318Z,980.3
2018-04-27T01:37:13.677Z,980.3
2018-04-27T01:38:15.054Z,980.3
2018-04-27T01:39:16.462Z,980.3
2018-04-27T01:40:17.839Z,980.3
2018-04-27T01:41:19.275Z,980.3
2018-04-27T01:42:21.118Z,980.3
2018-04-27T01:43:22.526Z,980.3
2018-04-27T01:44:23.919Z,980.3
2018-04-27T01:45:25.313Z,980.3
2018-04-27T01:46:26.750Z,980.3
2018-04-27T01:47:28.147Z,980.3
2018-04-27T01:48:29.503Z,980.3
2018-04-27T01:49:30.871Z,980.3
2018-04-27T01:50:32.314Z,980.3
2018-04-27T01:51:33.941Z,980.3
2018-04-27T01:52:35.322Z,980.3
2018-04-27T01:53:36.746Z,980.3
2018-04-27T01:54:38.106Z,980.3
2018-04-27T01:55:39.492Z,980.3
2018-04-27T01:56:40.895Z,980.3
2018-04-27T01:57:42.316Z,980.3
2018-04-27T01:58:43.640Z,980.3
2018-04-27T01:59:45.015Z,980.3
2018-04-27T02:00:46.411Z,980.3
2018-04-27T02:01:47.868Z,980.3
2018-04-27T02:02:49.255Z,980.3
2018-04-27T02:03:50.647Z,980.4
2018-04-27T02:04:52.036Z,980.3
2018-04-27T02:05:53.454Z,980.3
2018-04-27T02:06:54.891Z,980.2
2018-04-27T02:07:56.454Z,980.3
2018-04-27T02:08:57.872Z,980.3
2018-04-27T02:09:59.283Z,980.3
2018-04-27T02:11:00.706Z,980.3
2018-04-27T02:12:02.095Z,980.1
2018-04-27T02:13:03.391Z,980.2
2018-04-27T02:14:04.704Z,980.2
2018-04-27T02:15:06.063Z,980.2
2018-04-27T02:16:07.451Z,980.2
2018-04-27T02:17:08.807Z,980.2
2018-04-27T02:18:10.121Z,980.2
2018-04-27T02:19:11.502Z,980.2
2018-04-27T02:20:12.831Z,980.2
2018-04-27T02:21:14.153Z,980.2
2018-04-27T02:22:15.525Z,980.2
2018-04-27T02:23:16.900Z,980.2
2018-04-27T02:24:18.218Z,980.2
2018-04-27T02:25:19.532Z,980.2
2018-04-27T02:26:20.886Z,980.2
2018-04-27T02:27:22.235Z,980.2
2018-04-27T02:28:23.545Z,980.2
2018-04-27T02:29:24.855Z,980.2
2018-04-27T02:30:27.479Z,980.2
2018-04-27T02:31:28.811Z,980.2
2018-04-27T02:32:30.146Z,980.1
2018-04-27T02:33:32.882Z,980.1
2018-04-27T02:34:34.502Z,980.1
2018-04-27T02:35:35.826Z,980.1
2018-04-27T02:36:37.235Z,979.9
2018-04-27T02:37:38.646Z,980.1
2018-04-27T02:38:40.060Z,980.1
2018-04-27T02:39:41.382Z,980.1
2018-04-27T02:40:42.679Z,980.2
2018-04-27T02:41:43.990Z,980.1
2018-04-27T02:42:45.324Z,980.1
2018-04-27T02:43:46.657Z,980.1
2018-04-27T02:44:48.018Z,980.1
2018-04-27T02:45:49.338Z,980.1
2018-04-27T02:46:50.673Z,980
2018-04-27T02:47:52.039Z,980.1
2018-04-27T02:48:53.362Z,980.1
2018-04-27T02:49:54.679Z,980.1
2018-04-27T02:50:56.275Z,980.1
2018-04-27T02:51:57.638Z,980
2018-04-27T02:52:59.102Z,980
2018-04-27T02:54:00.382Z,980
2018-04-27T02:55:01.811Z,980
2018-04-27T02:56:03.105Z,980
2018-04-27T02:57:04.404Z,980
2018-04-27T02:58:05.769Z,980
2018-04-27T02:59:07.140Z,980
2018-04-27T03:00:08.467Z,980
2018-04-27T03:01:09.791Z,979.9
2018-04-27T03:02:11.119Z,979.9
2018-04-27T03:03:12.488Z,979.9
2018-04-27T03:04:13.792Z,979.9
2018-04-27T03:05:15.101Z,979.9
2018-04-27T03:06:16.433Z,979.9
2018-04-27T03:07:17.775Z,979.8
2018-04-27T03:08:19.392Z,979.8
2018-04-27T03:09:20.703Z,979.8
2018-04-27T03:10:21.990Z,979.8
2018-04-27T03:11:23.303Z,979.8
2018-04-27T03:12:24.607Z,979.8
2018-04-27T03:13:25.997Z,979.8
2018-04-27T03:14:27.298Z,979.9
2018-04-27T03:15:28.827Z,979.8
2018-04-27T03:16:30.199Z,979.8
2018-04-27T03:17:31.554Z,979.8
2018-04-27T03:18:32.910Z,979.6
2018-04-27T03:19:34.213Z,979.5
2018-04-27T03:20:35.526Z,979.8
2018-04-27T03:21:36.859Z,979.8
2018-04-27T03:22:38.186Z,979.8
2018-04-27T03:23:39.763Z,979.8
2018-04-27T03:24:41.091Z,979.8
2018-04-27T03:25:42.418Z,979.8
2018-04-27T03:26:43.755Z,979.8
2018-04-27T03:27:45.081Z,979.8
2018-04-27T03:28:46.428Z,979.8
2018-04-27T03:29:47.790Z,979.8
2018-04-27T03:30:49.125Z,979.6
2018-04-27T03:31:50.448Z,979.8
2018-04-27T03:32:51.739Z,979.8
2018-04-27T03:33:53.088Z,979.8
2018-04-27T03:34:54.399Z,979.7
2018-04-27T03:35:55.758Z,979.8
2018-04-27T03:36:57.078Z,979.8
2018-04-27T03:37:58.380Z,979.9
2018-04-27T03:38:59.809Z,979.8
2018-04-27T03:40:01.215Z,979.8
2018-04-27T03:41:02.499Z,979.9
2018-04-27T03:42:03.811Z,979.9
2018-04-27T03:43:05.122Z,979.9
2018-04-27T03:44:06.475Z,979.8
2018-04-27T03:45:07.814Z,979.9
2018-04-27T03:46:09.178Z,979.9
2018-04-27T03:47:10.470Z,979.6
2018-04-27T03:48:11.965Z,979.9
2018-04-27T03:49:13.306Z,979.8
2018-04-27T03:50:14.604Z,979.8
2018-04-27T03:51:16.874Z,979.6
2018-04-27T03:52:18.592Z,979.7
2018-04-27T03:53:19.994Z,979.8
2018-04-27T03:54:21.364Z,979.8
2018-04-27T03:55:22.688Z,979.8
2018-04-27T03:56:24.019Z,979.8
2018-04-27T03:57:25.319Z,979.7
2018-04-27T03:58:26.647Z,979.7
2018-04-27T03:59:28.034Z,979.7
2018-04-27T04:00:29.370Z,979.7
2018-04-27T04:01:30.675Z,979.7
2018-04-27T04:02:31.978Z,979.7
2018-04-27T04:03:33.564Z,979.7
2018-04-27T04:04:34.950Z,979.7
2018-04-27T04:05:36.290Z,979.7
2018-04-27T04:06:37.603Z,979.7
2018-04-27T04:07:38.940Z,979.7
2018-04-27T04:08:40.289Z,979.6
2018-04-27T04:09:41.654Z,979.6
2018-04-27T04:10:43.001Z,979.7
2018-04-27T04:11:44.430Z,979.7
2018-04-27T04:12:45.751Z,979.7
2018-04-27T04:13:47.106Z,979.7
2018-04-27T04:14:48.458Z,979.7
2018-04-27T04:15:49.790Z,979.7
2018-04-27T04:16:51.160Z,979.7
2018-04-27T04:17:52.517Z,979.6
2018-04-27T04:18:53.814Z,979.7
2018-04-27T04:19:55.471Z,979.7
2018-04-27T04:20:59.253Z,979.6
2018-04-27T04:22:01.092Z,979.7
2018-04-27T04:23:02.410Z,979.5
2018-04-27T04:24:03.706Z,979.7
2018-04-27T04:25:05.089Z,979.7
2018-04-27T04:26:06.407Z,979.7
2018-04-27T04:27:07.734Z,979.6
2018-04-27T04:28:09.911Z,979.4
2018-04-27T04:29:11.224Z,979.7
2018-04-27T04:30:12.602Z,979.6
2018-04-27T04:31:13.921Z,979.6
2018-04-27T04:32:15.279Z,979.6
2018-04-27T04:33:16.607Z,979.6
2018-04-27T04:34:17.945Z,979.7
2018-04-27T04:35:19.353Z,979.7
2018-04-27T04:36:20.787Z,979.7
2018-04-27T04:37:22.127Z,979.7
2018-04-27T04:38:23.519Z,979.4
2018-04-27T04:39:24.772Z,979.7
2018-04-27T04:40:26.359Z,979.7
2018-04-27T04:41:27.712Z,979.7
2018-04-27T04:42:29.029Z,979.7
2018-04-27T04:43:30.374Z,979.7
2018-04-27T04:44:31.701Z,979.7
2018-04-27T04:45:33.058Z,979.7
2018-04-27T04:46:34.393Z,979.7
2018-04-27T04:47:35.733Z,979.7
2018-04-27T04:48:37.088Z,979.5
2018-04-27T04:49:38.486Z,979.7
2018-04-27T04:50:41.771Z,979.7
2018-04-27T04:51:43.246Z,979.8
2018-04-27T04:52:44.673Z,979.8
2018-04-27T04:53:45.986Z,979.7
2018-04-27T04:54:47.326Z,979.8
2018-04-27T04:55:48.686Z,979.8
2018-04-27T04:56:50.044Z,979.8
2018-04-27T04:57:51.390Z,979.8
2018-04-27T04:58:52.726Z,979.8
2018-04-27T04:59:54.072Z,979.8
2018-04-27T05:00:55.456Z,979.8
2018-04-27T05:01:56.779Z,979.8
2018-04-27T05:02:58.283Z,979.8
2018-04-27T05:04:00.889Z,979.6
2018-04-27T05:05:05.366Z,979.6
2018-04-27T05:06:06.797Z,979.6
2018-04-27T05:07:08.252Z,979.8
2018-04-27T05:08:09.735Z,979.9
2018-04-27T05:09:13.216Z,979.8
2018-04-27T05:10:14.515Z,979.8
2018-04-27T05:11:16.025Z,979.8
2018-04-27T05:12:17.457Z,979.8
2018-04-27T05:13:18.812Z,979.8
2018-04-27T05:14:20.161Z,979.7
2018-04-27T05:15:25.961Z,979.5
2018-04-27T05:16:27.538Z,979.7
2018-04-27T05:17:28.947Z,979.7
2018-04-27T05:18:30.325Z,979.7
2018-04-27T05:19:31.676Z,979.7
2018-04-27T05:20:33.040Z,979.7
2018-04-27T05:21:40.372Z,979.6
2018-04-27T05:22:42.182Z,979.6
2018-04-27T05:23:43.550Z,979.5
2018-04-27T05:24:44.920Z,979.7
2018-04-27T05:25:47.856Z,979.7
2018-04-27T05:26:49.226Z,979.6
2018-04-27T05:27:50.549Z,979.6
2018-04-27T05:28:51.889Z,979.6
2018-04-27T05:29:53.240Z,979.6
2018-04-27T05:30:54.655Z,979.6
2018-04-27T05:31:56.020Z,979.6
2018-04-27T05:32:57.361Z,979.6
2018-04-27T05:33:58.755Z,979.6
2018-04-27T05:35:00.090Z,979.6
2018-04-27T05:36:01.515Z,979.4
2018-04-27T05:37:08.499Z,979.6
2018-04-27T05:38:13.030Z,979.6
2018-04-27T05:39:14.375Z,979.6
2018-04-27T05:40:15.680Z,979.6
2018-04-27T05:41:17.106Z,979.5
2018-04-27T05:42:18.658Z,979.5
2018-04-27T05:43:19.985Z,979.6
2018-04-27T05:44:21.360Z,979.6
2018-04-27T05:45:22.746Z,979.5
2018-04-27T05:46:24.140Z,979.5
2018-04-27T05:47:25.542Z,979.5
2018-04-27T05:48:33.303Z,979.3
2018-04-27T05:49:34.735Z,979.5
2018-04-27T05:50:36.094Z,979.5
2018-04-27T05:51:37.444Z,979.3
2018-04-27T05:52:38.824Z,979.5
2018-04-27T05:53:40.201Z,979.5
2018-04-27T05:54:41.530Z,979.5
2018-04-27T05:55:42.904Z,979.5
2018-04-27T05:56:51.792Z,979.5
2018-04-27T05:57:53.166Z,979.5
2018-04-27T05:58:54.517Z,979.5
2018-04-27T05:59:55.952Z,979.5
2018-04-27T06:00:57.352Z,979.3
2018-04-27T06:01:58.706Z,979.5
2018-04-27T06:03:00.115Z,979.5
2018-04-27T06:04:01.545Z,979.5
2018-04-27T06:05:02.941Z,979.4
2018-04-27T06:06:04.350Z,979.4
2018-04-27T06:07:05.760Z,979.2
2018-04-27T06:08:07.394Z,979.3
2018-04-27T06:09:11.246Z,979.4
2018-04-27T06:10:12.687Z,979.4
2018-04-27T06:11:13.997Z,979.4
2018-04-27T06:12:17.784Z,979.3
2018-04-27T06:13:19.144Z,979.3
2018-04-27T06:14:20.488Z,979.4
2018-04-27T06:15:21.903Z,979.3
2018-04-27T06:16:23.261Z,979.3
2018-04-27T06:17:24.597Z,979.3
2018-04-27T06:18:26.099Z,979.3
2018-04-27T06:19:27.454Z,979.3
2018-04-27T06:20:28.817Z,979.2
2018-04-27T06:21:30.152Z,979.2
2018-04-27T06:22:31.518Z,979.1
2018-04-27T06:23:35.138Z,979.1
2018-04-27T06:24:36.461Z,979.3
2018-04-27T06:25:37.964Z,979.3
2018-04-27T06:26:39.363Z,979.2
2018-04-27T06:27:40.776Z,979.3
2018-04-27T06:28:42.164Z,979.3
2018-04-27T06:29:44.205Z,979.3
2018-04-27T06:30:45.554Z,979.3
2018-04-27T06:31:46.934Z,979.3
2018-04-27T06:32:48.249Z,979.3
2018-04-27T06:33:49.611Z,979.3
2018-04-27T06:34:51.205Z,979.1
2018-04-27T06:35:54.432Z,979.3
2018-04-27T06:36:55.778Z,979.3
2018-04-27T06:37:57.082Z,979.3
2018-04-27T06:38:58.529Z,979.4
2018-04-27T06:39:59.943Z,979.4
2018-04-27T06:41:01.353Z,979.4
2018-04-27T06:42:10.575Z,979.4
2018-04-27T06:43:12.463Z,979.4
2018-04-27T06:44:13.920Z,979.2
2018-04-27T06:45:15.356Z,979.4
2018-04-27T06:46:22.707Z,979.5
2018-04-27T06:47:24.091Z,979.5
2018-04-27T06:48:25.685Z,979.4
2018-04-27T06:49:27.090Z,979.6
2018-04-27T06:50:36.325Z,979.6
2018-04-27T06:51:37.691Z,979.7
2018-04-27T06:52:39.168Z,979.5
2018-04-27T06:53:45.442Z,979.7
2018-04-27T06:54:46.915Z,979.7
2018-04-27T06:55:48.303Z,979.8
2018-04-27T06:56:49.635Z,979.7
2018-04-27T06:57:50.990Z,979.6
2018-04-27T06:58:52.399Z,979.7
2018-04-27T06:59:55.621Z,979.8
2018-04-27T07:00:57.017Z,979.8
2018-04-27T07:01:58.456Z,979.9
2018-04-27T07:02:59.786Z,979.9
2018-04-27T07:04:01.170Z,979.9
2018-04-27T07:05:02.692Z,979.9
2018-04-27T07:06:03.923Z,980
2018-04-27T07:07:08.706Z,980
2018-04-27T07:08:10.083Z,980
2018-04-27T07:09:11.425Z,980.1
2018-04-27T07:10:12.804Z,980.1
2018-04-27T07:11:14.154Z,980.1
2018-04-27T07:12:15.499Z,980.1
2018-04-27T07:13:16.828Z,980.1
2018-04-27T07:14:18.201Z,980.2
2018-04-27T07:15:19.789Z,980.1
2018-04-27T07:16:21.247Z,980
2018-04-27T07:17:22.691Z,980
2018-04-27T07:18:24.090Z,980.2
2018-04-27T07:19:27.328Z,980
2018-04-27T07:20:28.805Z,980.1
2018-04-27T07:21:31.852Z,980.1
2018-04-27T07:22:33.204Z,980.1
2018-04-27T07:23:34.646Z,980.1
2018-04-27T07:24:36.023Z,980.1
2018-04-27T07:25:37.481Z,980.1
2018-04-27T07:26:38.892Z,980
2018-04-27T07:27:40.241Z,980.2
2018-04-27T07:28:41.653Z,980.2
2018-04-27T07:29:43.019Z,980.1
2018-04-27T07:30:44.425Z,980.2
2018-04-27T07:31:45.807Z,980.2
2018-04-27T07:32:47.150Z,980.2
2018-04-27T07:33:48.539Z,980.2
2018-04-27T07:34:49.939Z,980.2
2018-04-27T07:35:51.341Z,980.1
2018-04-27T07:36:52.742Z,980.2
2018-04-27T07:37:54.073Z,980.2
2018-04-27T07:38:55.414Z,980.2
2018-04-27T07:39:56.800Z,980.2
2018-04-27T07:40:58.288Z,980.2
2018-04-27T07:41:59.642Z,980.2
2018-04-27T07:43:01.082Z,980.3
2018-04-27T07:44:02.431Z,980.2
2018-04-27T07:45:03.787Z,980.2
2018-04-27T07:46:05.224Z,980.2
2018-04-27T07:47:06.641Z,980.2
2018-04-27T07:48:08.006Z,980.2
2018-04-27T07:49:09.471Z,980.2
2018-04-27T07:50:10.954Z,980.2
2018-04-27T07:51:12.491Z,980
2018-04-27T07:52:13.883Z,980.3
2018-04-27T07:53:15.533Z,980.3
2018-04-27T07:54:17.027Z,980.1
2018-04-27T07:55:18.518Z,980.2
2018-04-27T07:56:19.913Z,980.2
2018-04-27T07:57:21.227Z,980.1
2018-04-27T07:58:22.576Z,980
2018-04-27T07:59:23.953Z,980.2
2018-04-27T08:00:25.294Z,980.1
2018-04-27T08:01:26.717Z,980.2
2018-04-27T08:02:28.154Z,980.1
2018-04-27T08:03:29.456Z,980.1
2018-04-27T08:04:30.831Z,980.2
2018-04-27T08:05:32.153Z,980.3
2018-04-27T08:06:33.536Z,980.1
2018-04-27T08:07:34.909Z,980.2
2018-04-27T08:08:36.267Z,980.3
2018-04-27T08:09:39.107Z,980.2
2018-04-27T08:10:40.556Z,980.2
2018-04-27T08:11:41.953Z,980.3
2018-04-27T08:12:43.339Z,980.3
2018-04-27T08:13:44.671Z,980.3
2018-04-27T08:14:46.364Z,980.3
2018-04-27T08:15:47.823Z,980.3
2018-04-27T08:16:49.296Z,980.3
2018-04-27T08:17:50.627Z,980.3
2018-04-27T08:18:51.969Z,980.3
2018-04-27T08:19:53.347Z,980.3
2018-04-27T08:20:54.709Z,980.3
2018-04-27T08:21:56.110Z,980.1
2018-04-27T08:22:57.458Z,980.1
2018-04-27T08:23:58.848Z,980.3
2018-04-27T08:25:00.187Z,980.2
2018-04-27T08:26:01.548Z,980.2
2018-04-27T08:27:03.748Z,980.2
2018-04-27T08:28:06.376Z,980.1
2018-04-27T08:29:07.960Z,980
2018-04-27T08:30:11.768Z,980.1
2018-04-27T08:31:13.008Z,980
2018-04-27T08:32:14.407Z,980.1
2018-04-27T08:33:15.791Z,980.1
2018-04-27T08:34:17.190Z,980.1
2018-04-27T08:35:18.691Z,979.9
2018-04-27T08:36:20.437Z,980.1
2018-04-27T08:37:21.850Z,980.1
2018-04-27T08:38:28.223Z,980.1
2018-04-27T08:39:29.575Z,980
2018-04-27T08:40:31.023Z,980.1
2018-04-27T08:41:32.378Z,980
2018-04-27T08:42:33.857Z,979.9
2018-04-27T08:43:35.234Z,979.9
2018-04-27T08:44:36.556Z,980
2018-04-27T08:45:38.031Z,980
2018-04-27T08:46:39.532Z,979.7
2018-04-27T08:47:41.235Z,979.7
2018-04-27T08:48:42.726Z,979.8
2018-04-27T08:49:44.083Z,979.9
2018-04-27T08:50:45.461Z,979.8
2018-04-27T08:51:46.909Z,979.7
2018-04-27T08:52:48.538Z,979.7
2018-04-27T08:53:49.904Z,979.7
2018-04-27T08:54:52.573Z,979.6
2018-04-27T08:55:57.261Z,979.6
2018-04-27T08:56:58.625Z,979.6
2018-04-27T08:58:00.119Z,979.5
2018-04-27T08:59:01.569Z,979.6
2018-04-27T09:00:03.199Z,979.5
2018-04-27T09:01:04.540Z,979.5
2018-04-27T09:02:05.929Z,979.5
2018-04-27T09:03:09.963Z,979.5
2018-04-27T09:04:11.854Z,979.5
2018-04-27T09:05:13.262Z,979.4
2018-04-27T09:06:16.828Z,979.4
2018-04-27T09:07:18.213Z,979.4
2018-04-27T09:08:19.761Z,979.4
2018-04-27T09:09:21.147Z,979.4
2018-04-27T09:10:22.485Z,979.3
2018-04-27T09:11:25.342Z,979.3
2018-04-27T09:12:26.714Z,979.1
2018-04-27T09:13:28.243Z,979.1
2018-04-27T09:14:29.569Z,979.2
2018-04-27T09:15:30.954Z,979.3
2018-04-27T09:16:35.100Z,979.2
2018-04-27T09:17:36.451Z,979.2
2018-04-27T09:18:37.982Z,979.2
2018-04-27T09:19:44.063Z,979.1
2018-04-27T09:20:45.468Z,979.2
2018-04-27T09:21:47.068Z,978.9
2018-04-27T09:22:48.580Z,979.2
2018-04-27T09:23:50.007Z,979.2
2018-04-27T09:24:51.364Z,979.2
2018-04-27T09:25:52.784Z,979.2
2018-04-27T09:26:55.808Z,979.2
2018-04-27T09:27:57.550Z,979.2
2018-04-27T09:28:59.255Z,979.2
2018-04-27T09:30:00.637Z,979.2
2018-04-27T09:31:02.060Z,979.1
2018-04-27T09:32:03.396Z,979.1
2018-04-27T09:33:05.051Z,979
2018-04-27T09:34:06.467Z,979
2018-04-27T09:35:18.453Z,978.9
2018-04-27T09:36:19.824Z,979.1
2018-04-27T09:37:21.294Z,979.1
2018-04-27T09:38:22.692Z,979
2018-04-27T09:39:24.136Z,979.1
2018-04-27T09:40:25.916Z,979.1
2018-04-27T09:41:27.305Z,979
2018-04-27T09:42:31.601Z,979
2018-04-27T09:43:33.073Z,978.9
2018-04-27T09:44:34.450Z,978.9
2018-04-27T09:45:35.839Z,978.9
2018-04-27T09:46:39.329Z,978.8
2018-04-27T09:47:40.884Z,978.8
2018-04-27T09:48:42.260Z,978.8
2018-04-27T09:49:46.911Z,978.8
2018-04-27T09:50:50.493Z,978.8
2018-04-27T09:51:51.862Z,978.8
2018-04-27T09:52:53.239Z,978.8
2018-04-27T09:53:58.842Z,978.7
2018-04-27T09:55:00.242Z,978.5
2018-04-27T09:56:01.619Z,978.5
2018-04-27T09:57:03.018Z,978.6
2018-04-27T09:58:05.463Z,978.4
2018-04-27T09:59:06.877Z,978.6
2018-04-27T10:00:08.408Z,978.5
2018-04-27T10:01:09.865Z,978.5
2018-04-27T10:02:11.386Z,978.3
2018-04-27T10:03:12.807Z,978.4
2018-04-27T10:04:14.204Z,978.3
2018-04-27T10:05:15.690Z,978.4
2018-04-27T10:06:20.315Z,978.4
2018-04-27T10:07:21.749Z,978.4
2018-04-27T10:08:23.175Z,978.4
2018-04-27T10:09:24.557Z,978.4
2018-04-27T10:10:25.978Z,978.4
2018-04-27T10:11:27.420Z,978.4
2018-04-27T10:12:29.236Z,978.3
2018-04-27T10:13:32.326Z,978
2018-04-27T10:14:33.836Z,978.2
2018-04-27T10:15:35.381Z,978.3
2018-04-27T10:16:36.904Z,978.3
2018-04-27T10:17:41.251Z,978.2
2018-04-27T10:18:43.005Z,978.2
2018-04-27T10:19:44.454Z,978.2
2018-04-27T10:20:46.407Z,977.9
2018-04-27T10:21:47.869Z,978.2
2018-04-27T10:22:51.749Z,978.2
2018-04-27T10:23:53.190Z,978.2
2018-04-27T10:24:54.556Z,978.1
2018-04-27T10:25:56.301Z,978
2018-04-27T10:26:57.879Z,978
2018-04-27T10:28:00.407Z,977.7
2018-04-27T10:29:02.128Z,977.9
2018-04-27T10:30:03.780Z,977.8
2018-04-27T10:31:08.469Z,977.8
2018-04-27T10:32:10.130Z,977.8
2018-04-27T10:33:11.588Z,977.7
2018-04-27T10:34:13.149Z,977.9
2018-04-27T10:35:14.634Z,977.9
2018-04-27T10:36:17.106Z,977.9
2018-04-27T10:37:18.670Z,977.9
2018-04-27T10:38:20.090Z,977.9
2018-04-27T10:39:21.529Z,977.9
2018-04-27T10:40:22.892Z,977.8
2018-04-27T10:41:24.401Z,977.9
2018-04-27T10:42:25.783Z,977.9
2018-04-27T10:43:27.447Z,977.8
2018-04-27T10:44:28.942Z,977.7
2018-04-27T10:45:32.639Z,977.7
2018-04-27T10:46:34.308Z,977.7
2018-04-27T10:47:35.798Z,977.7
2018-04-27T10:48:37.414Z,977.8
2018-04-27T10:49:38.869Z,977.7
2018-04-27T10:50:40.563Z,977.7
2018-04-27T10:51:42.427Z,977.5
2018-04-27T10:52:48.651Z,977.6
2018-04-27T10:53:50.122Z,977.6
2018-04-27T10:54:51.619Z,977.6
2018-04-27T10:55:53.248Z,977.5
2018-04-27T10:56:54.814Z,977.5
2018-04-27T10:57:56.547Z,977.5
2018-04-27T10:59:14.690Z,977.5
2018-04-27T11:00:16.657Z,977.4
2018-04-27T11:01:18.705Z,977.4
2018-04-27T11:02:29.929Z,977.4
2018-04-27T11:03:41.609Z,977.3
2018-04-27T11:04:43.931Z,977.3
2018-04-27T11:05:46.973Z,977.4
2018-04-27T11:06:51.858Z,977.2
2018-04-27T11:07:59.246Z,977.2
2018-04-27T11:09:01.783Z,977.4
2018-04-27T11:10:11.534Z,977.3
2018-04-27T11:11:14.486Z,977.2
2018-04-27T11:12:23.846Z,977
2018-04-27T11:13:41.258Z,977
2018-04-27T11:14:51.034Z,976.9
2018-04-27T11:16:03.349Z,977
2018-04-27T11:17:11.974Z,977
2018-04-27T11:18:18.223Z,977
2018-04-27T11:19:25.339Z,977
2018-04-27T11:20:29.188Z,977.1
2018-04-27T11:21:35.031Z,977.1
2018-04-27T11:22:36.491Z,977.1
2018-04-27T11:23:43.654Z,977
2018-04-27T11:24:47.049Z,977
2018-04-27T11:25:50.769Z,976.8
2018-04-27T11:26:57.767Z,976.7
2018-04-27T11:28:09.318Z,976.8
2018-04-27T11:29:25.523Z,976.7
2018-04-27T11:30:31.584Z,976.5
2018-04-27T11:31:38.929Z,976.6
2018-04-27T11:32:40.438Z,976.6
2018-04-27T11:33:43.229Z,976.6
2018-04-27T11:34:44.856Z,976.5
2018-04-27T11:35:48.309Z,976.5
2018-04-27T11:36:49.708Z,976.5
2018-04-27T11:37:51.204Z,976.6
2018-04-27T11:39:00.046Z,976.5
2018-04-27T11:40:18.860Z,976.5
2018-04-27T11:41:20.480Z,976.5
2018-04-27T11:42:21.843Z,976.5
2018-04-27T11:43:23.546Z,976.5
2018-04-27T11:44:25.348Z,976.5
2018-04-27T11:45:26.939Z,976.4
2018-04-27T11:46:36.672Z,976.5
2018-04-27T11:47:38.166Z,976.4
2018-04-27T11:48:39.611Z,976.4
2018-04-27T11:49:41.574Z,976.3
2018-04-27T11:50:42.989Z,976.5
2018-04-27T11:51:44.606Z,976.4
2018-04-27T11:52:46.443Z,976.3
2018-04-27T11:53:48.042Z,976.4
2018-04-27T11:54:51.259Z,976.3
2018-04-27T11:55:52.897Z,976.1
2018-04-27T11:56:54.317Z,976.2
2018-04-27T11:57:55.686Z,976.2
2018-04-27T11:58:59.160Z,976.2
2018-04-27T12:00:04.315Z,976.2
2018-04-27T12:01:05.756Z,976.2
2018-04-27T12:02:07.271Z,976.2
2018-04-27T12:03:09.008Z,976.1
2018-04-27T12:04:10.660Z,976
2018-04-27T12:05:12.177Z,975.9
2018-04-27T12:06:13.579Z,976
2018-04-27T12:07:20.792Z,976
2018-04-27T12:08:23.001Z,976
2018-04-27T12:09:24.457Z,975.9
2018-04-27T12:10:26.277Z,975.8
2018-04-27T12:11:27.732Z,975.7
2018-04-27T12:12:29.354Z,975.8
2018-04-27T12:13:30.863Z,975.8
2018-04-27T12:14:32.394Z,975.8
2018-04-27T12:15:34.160Z,975.8
2018-04-27T12:16:35.633Z,975.8
2018-04-27T12:19:04.315Z,976
2018-04-27T12:20:07.976Z,975.9
2018-04-27T12:21:09.439Z,975.8
2018-04-27T12:22:12.375Z,975.9
2018-04-27T12:23:14.284Z,975.8
2018-04-27T12:24:15.831Z,975.9
2018-04-27T12:25:19.869Z,976
2018-04-27T12:26:21.622Z,975.9
2018-04-27T12:27:23.041Z,975.9
2018-04-27T12:28:25.835Z,976
2018-04-27T12:29:27.355Z,975.8
2018-04-27T12:30:29.052Z,975.7
2018-04-27T12:31:30.786Z,975.8
2018-04-27T12:32:32.336Z,975.7
2018-04-27T12:33:34.118Z,975.8
2018-04-27T12:34:35.878Z,975.9
2018-04-27T12:35:37.366Z,975.8
2018-04-27T12:36:38.772Z,975.8
2018-04-27T12:37:44.267Z,975.9
2018-04-27T12:38:45.746Z,975.8
2018-04-27T12:39:47.441Z,975.9
2018-04-27T12:40:49.292Z,975.9
2018-04-27T12:41:51.162Z,975.9
2018-04-27T12:42:52.876Z,975.9
2018-04-27T12:43:56.271Z,975.9
2018-04-27T12:45:00.243Z,975.6
2018-04-27T12:46:03.752Z,975.8
2018-04-27T12:47:05.194Z,975.8
2018-04-27T12:48:08.670Z,975.7
2018-04-27T12:49:10.338Z,975.7
2018-04-27T12:50:12.792Z,975.7
2018-04-27T12:51:14.266Z,975.7
2018-04-27T12:52:15.851Z,975.7
2018-04-27T12:53:17.449Z,975.5
2018-04-27T12:54:21.236Z,975.6
2018-04-27T12:55:26.872Z,975.5
2018-04-27T12:56:28.269Z,975.6
2018-04-27T12:57:32.191Z,975.5
2018-04-27T12:58:33.644Z,975.7
2018-04-27T12:59:35.142Z,975.7
2018-04-27T13:00:36.750Z,975.7
2018-04-27T13:01:38.098Z,975.7
2018-04-27T13:02:39.945Z,975.7
2018-04-27T13:03:41.442Z,975.7
2018-04-27T13:04:43.008Z,975.7
2018-04-27T13:05:44.487Z,975.7
2018-04-27T13:06:46.001Z,975.6
2018-04-27T13:07:47.390Z,975.5
2018-04-27T13:08:48.773Z,975.5
2018-04-27T13:09:50.435Z,975.5
2018-04-27T13:10:51.919Z,975.5
2018-04-27T13:11:53.409Z,975.6
2018-04-27T13:12:54.815Z,975.6
2018-04-27T13:13:57.210Z,975.6
2018-04-27T13:14:58.640Z,975.5
2018-04-27T13:16:00.058Z,975.4
2018-04-27T13:17:01.481Z,975.5
2018-04-27T13:18:06.357Z,975.3
2018-04-27T13:19:07.728Z,975.4
2018-04-27T13:20:10.508Z,975.4
2018-04-27T13:21:12.059Z,975.4
2018-04-27T13:22:13.487Z,975.4
2018-04-27T13:23:14.910Z,975.4